sensor_id;sensor_type;location;lat;lon;timestamp;P1;durP1;ratioP1;P2;durP2;ratioP2
34900;SDS011;21112;51.976;5.660;2022-07-29T00:02:23;3.67;;;0.80;;
34900;SDS011;21112;51.976;5.660;2022-07-29T00:04:49;4.55;;;0.82;;
34900;SDS011;21112;51.976;5.660;2022-07-29T00:07:16;1.65;;;0.70;;
34900;SDS011;21112;51.976;5.660;2022-07-29T00:09:44;2.40;;;0.80;;
34900;SDS011;21112;51.976;5.660;2022-07-29T00:12:11;2.80;;;0.93;;
34900;SDS011;21112;51.976;5.660;2022-07-29T00:14:37;2.85;;;0.70;;
34900;SDS011;21112;51.976;5.660;2022-07-29T00:17:04;2.92;;;0.90;;
34900;SDS011;21112;51.976;5.660;2022-07-29T00:19:30;1.02;;;0.68;;
34900;SDS011;21112;51.976;5.660;2022-07-29T00:21:59;3.45;;;0.90;;
34900;SDS011;21112;51.976;5.660;2022-07-29T00:24:25;1.05;;;0.80;;
34900;SDS011;21112;51.976;5.660;2022-07-29T00:26:53;1.98;;;0.80;;
34900;SDS011;21112;51.976;5.660;2022-07-29T00:29:20;4.70;;;0.93;;
34900;SDS011;21112;51.976;5.660;2022-07-29T00:31:47;1.70;;;0.80;;
34900;SDS011;21112;51.976;5.660;2022-07-29T00:34:13;1.77;;;0.82;;
34900;SDS011;21112;51.976;5.660;2022-07-29T00:36:54;0.85;;;0.63;;
34900;SDS011;21112;51.976;5.660;2022-07-29T00:39:21;3.08;;;0.70;;
34900;SDS011;21112;51.976;5.660;2022-07-29T00:41:47;3.80;;;1.10;;
34900;SDS011;21112;51.976;5.660;2022-07-29T00:44:15;1.23;;;0.68;;
34900;SDS011;21112;51.976;5.660;2022-07-29T00:46:43;2.55;;;0.88;;
34900;SDS011;21112;51.976;5.660;2022-07-29T00:49:10;1.35;;;0.80;;
34900;SDS011;21112;51.976;5.660;2022-07-29T00:51:37;4.28;;;0.98;;
34900;SDS011;21112;51.976;5.660;2022-07-29T00:54:04;2.22;;;0.85;;
34900;SDS011;21112;51.976;5.660;2022-07-29T00:56:31;0.75;;;0.70;;
34900;SDS011;21112;51.976;5.660;2022-07-29T00:58:57;3.38;;;0.80;;
34900;SDS011;21112;51.976;5.660;2022-07-29T01:01:25;1.75;;;0.90;;
34900;SDS011;21112;51.976;5.660;2022-07-29T01:06:20;2.80;;;0.60;;
34900;SDS011;21112;51.976;5.660;2022-07-29T01:08:46;2.33;;;0.83;;
34900;SDS011;21112;51.976;5.660;2022-07-29T01:11:13;2.78;;;0.80;;
34900;SDS011;21112;51.976;5.660;2022-07-29T01:13:40;2.17;;;0.73;;
34900;SDS011;21112;51.976;5.660;2022-07-29T01:16:10;1.50;;;0.80;;
34900;SDS011;21112;51.976;5.660;2022-07-29T01:18:41;2.53;;;0.70;;
34900;SDS011;21112;51.976;5.660;2022-07-29T01:21:15;1.23;;;0.63;;
34900;SDS011;21112;51.976;5.660;2022-07-29T01:23:48;2.55;;;0.73;;
34900;SDS011;21112;51.976;5.660;2022-07-29T01:26:26;0.70;;;0.60;;
34900;SDS011;21112;51.976;5.660;2022-07-29T01:29:07;2.60;;;0.85;;
34900;SDS011;21112;51.976;5.660;2022-07-29T01:31:36;2.53;;;0.70;;
34900;SDS011;21112;51.976;5.660;2022-07-29T01:34:05;1.55;;;0.93;;
34900;SDS011;21112;51.976;5.660;2022-07-29T01:36:36;4.40;;;1.10;;
34900;SDS011;21112;51.976;5.660;2022-07-29T01:39:06;3.03;;;0.70;;
34900;SDS011;21112;51.976;5.660;2022-07-29T01:41:35;2.50;;;0.80;;
34900;SDS011;21112;51.976;5.660;2022-07-29T01:46:33;3.30;;;0.90;;
34900;SDS011;21112;51.976;5.660;2022-07-29T01:49:02;1.45;;;0.70;;
34900;SDS011;21112;51.976;5.660;2022-07-29T01:51:33;6.35;;;1.05;;
34900;SDS011;21112;51.976;5.660;2022-07-29T01:54:02;5.05;;;0.77;;
34900;SDS011;21112;51.976;5.660;2022-07-29T01:56:30;1.75;;;0.80;;
34900;SDS011;21112;51.976;5.660;2022-07-29T01:58:59;1.30;;;0.82;;
34900;SDS011;21112;51.976;5.660;2022-07-29T02:01:25;2.70;;;0.80;;
34900;SDS011;21112;51.976;5.660;2022-07-29T02:03:54;2.42;;;0.75;;
34900;SDS011;21112;51.976;5.660;2022-07-29T02:06:23;2.15;;;0.80;;
34900;SDS011;21112;51.976;5.660;2022-07-29T02:08:51;1.93;;;0.83;;
34900;SDS011;21112;51.976;5.660;2022-07-29T02:11:19;1.00;;;0.73;;
34900;SDS011;21112;51.976;5.660;2022-07-29T02:13:46;2.88;;;0.80;;
34900;SDS011;21112;51.976;5.660;2022-07-29T02:16:13;3.45;;;1.00;;
34900;SDS011;21112;51.976;5.660;2022-07-29T02:18:43;1.05;;;0.60;;
34900;SDS011;21112;51.976;5.660;2022-07-29T02:21:13;2.33;;;1.00;;
34900;SDS011;21112;51.976;5.660;2022-07-29T02:23:43;1.25;;;0.70;;
34900;SDS011;21112;51.976;5.660;2022-07-29T02:26:10;1.03;;;0.77;;
34900;SDS011;21112;51.976;5.660;2022-07-29T02:28:38;2.13;;;1.27;;
34900;SDS011;21112;51.976;5.660;2022-07-29T02:31:05;1.15;;;0.80;;
34900;SDS011;21112;51.976;5.660;2022-07-29T02:33:33;0.98;;;0.70;;
34900;SDS011;21112;51.976;5.660;2022-07-29T02:36:00;1.05;;;0.80;;
34900;SDS011;21112;51.976;5.660;2022-07-29T02:38:28;2.13;;;0.90;;
34900;SDS011;21112;51.976;5.660;2022-07-29T02:41:15;2.13;;;0.80;;
34900;SDS011;21112;51.976;5.660;2022-07-29T02:43:43;4.38;;;0.70;;
34900;SDS011;21112;51.976;5.660;2022-07-29T02:46:11;2.17;;;0.70;;
34900;SDS011;21112;51.976;5.660;2022-07-29T02:48:43;2.42;;;0.88;;
34900;SDS011;21112;51.976;5.660;2022-07-29T02:51:12;2.42;;;1.20;;
34900;SDS011;21112;51.976;5.660;2022-07-29T02:53:40;1.95;;;0.98;;
34900;SDS011;21112;51.976;5.660;2022-07-29T02:56:10;1.65;;;0.68;;
34900;SDS011;21112;51.976;5.660;2022-07-29T02:58:38;1.85;;;0.70;;
34900;SDS011;21112;51.976;5.660;2022-07-29T03:01:08;1.77;;;0.77;;
34900;SDS011;21112;51.976;5.660;2022-07-29T03:03:37;4.68;;;1.05;;
34900;SDS011;21112;51.976;5.660;2022-07-29T03:06:05;1.93;;;0.90;;
34900;SDS011;21112;51.976;5.660;2022-07-29T03:08:34;1.88;;;0.90;;
34900;SDS011;21112;51.976;5.660;2022-07-29T03:11:02;1.45;;;0.80;;
34900;SDS011;21112;51.976;5.660;2022-07-29T03:13:29;2.03;;;0.70;;
34900;SDS011;21112;51.976;5.660;2022-07-29T03:15:57;1.83;;;0.80;;
34900;SDS011;21112;51.976;5.660;2022-07-29T03:18:24;2.15;;;0.85;;
34900;SDS011;21112;51.976;5.660;2022-07-29T03:20:50;1.80;;;0.77;;
34900;SDS011;21112;51.976;5.660;2022-07-29T03:23:18;1.58;;;0.70;;
34900;SDS011;21112;51.976;5.660;2022-07-29T03:25:46;2.78;;;0.95;;
34900;SDS011;21112;51.976;5.660;2022-07-29T03:28:14;2.42;;;0.80;;
34900;SDS011;21112;51.976;5.660;2022-07-29T03:30:40;2.85;;;1.10;;
34900;SDS011;21112;51.976;5.660;2022-07-29T03:33:07;2.38;;;0.82;;
34900;SDS011;21112;51.976;5.660;2022-07-29T03:35:34;3.35;;;1.00;;
34900;SDS011;21112;51.976;5.660;2022-07-29T03:38:01;4.43;;;1.13;;
34900;SDS011;21112;51.976;5.660;2022-07-29T03:40:30;2.92;;;0.90;;
34900;SDS011;21112;51.976;5.660;2022-07-29T03:42:57;1.88;;;0.82;;
34900;SDS011;21112;51.976;5.660;2022-07-29T03:45:27;1.77;;;0.73;;
34900;SDS011;21112;51.976;5.660;2022-07-29T03:47:56;1.48;;;0.80;;
34900;SDS011;21112;51.976;5.660;2022-07-29T03:50:24;5.43;;;1.00;;
34900;SDS011;21112;51.976;5.660;2022-07-29T03:52:51;2.95;;;1.10;;
34900;SDS011;21112;51.976;5.660;2022-07-29T03:55:18;2.10;;;0.75;;
34900;SDS011;21112;51.976;5.660;2022-07-29T03:57:45;1.48;;;0.82;;
34900;SDS011;21112;51.976;5.660;2022-07-29T04:00:12;1.38;;;0.90;;
34900;SDS011;21112;51.976;5.660;2022-07-29T04:02:42;4.93;;;1.00;;
34900;SDS011;21112;51.976;5.660;2022-07-29T04:05:13;1.55;;;1.00;;
34900;SDS011;21112;51.976;5.660;2022-07-29T04:07:39;1.20;;;0.70;;
34900;SDS011;21112;51.976;5.660;2022-07-29T04:10:06;1.98;;;0.70;;
34900;SDS011;21112;51.976;5.660;2022-07-29T04:12:33;4.35;;;1.40;;
34900;SDS011;21112;51.976;5.660;2022-07-29T04:15:00;1.63;;;0.80;;
34900;SDS011;21112;51.976;5.660;2022-07-29T04:17:27;2.13;;;1.17;;
34900;SDS011;21112;51.976;5.660;2022-07-29T04:19:55;1.77;;;1.10;;
34900;SDS011;21112;51.976;5.660;2022-07-29T04:22:21;3.28;;;1.17;;
34900;SDS011;21112;51.976;5.660;2022-07-29T04:24:48;2.55;;;1.20;;
34900;SDS011;21112;51.976;5.660;2022-07-29T04:27:15;1.88;;;1.05;;
34900;SDS011;21112;51.976;5.660;2022-07-29T04:32:09;1.92;;;0.90;;
34900;SDS011;21112;51.976;5.660;2022-07-29T04:34:36;1.70;;;0.90;;
34900;SDS011;21112;51.976;5.660;2022-07-29T04:37:04;1.98;;;0.93;;
34900;SDS011;21112;51.976;5.660;2022-07-29T04:39:33;3.42;;;0.90;;
34900;SDS011;21112;51.976;5.660;2022-07-29T04:42:00;2.42;;;1.08;;
34900;SDS011;21112;51.976;5.660;2022-07-29T04:44:26;1.65;;;0.88;;
34900;SDS011;21112;51.976;5.660;2022-07-29T04:46:53;1.80;;;0.95;;
34900;SDS011;21112;51.976;5.660;2022-07-29T04:49:20;2.38;;;0.90;;
34900;SDS011;21112;51.976;5.660;2022-07-29T04:51:47;2.42;;;1.00;;
34900;SDS011;21112;51.976;5.660;2022-07-29T04:54:15;2.95;;;1.02;;
34900;SDS011;21112;51.976;5.660;2022-07-29T04:56:41;2.75;;;1.15;;
34900;SDS011;21112;51.976;5.660;2022-07-29T04:59:08;1.45;;;1.00;;
34900;SDS011;21112;51.976;5.660;2022-07-29T05:01:34;2.25;;;0.95;;
34900;SDS011;21112;51.976;5.660;2022-07-29T05:04:01;2.15;;;0.90;;
34900;SDS011;21112;51.976;5.660;2022-07-29T05:06:29;3.88;;;1.25;;
34900;SDS011;21112;51.976;5.660;2022-07-29T05:08:55;3.65;;;1.30;;
34900;SDS011;21112;51.976;5.660;2022-07-29T05:11:23;2.60;;;1.10;;
34900;SDS011;21112;51.976;5.660;2022-07-29T05:13:50;2.05;;;1.25;;
34900;SDS011;21112;51.976;5.660;2022-07-29T05:16:17;1.65;;;1.02;;
34900;SDS011;21112;51.976;5.660;2022-07-29T05:18:44;3.40;;;1.20;;
34900;SDS011;21112;51.976;5.660;2022-07-29T05:21:11;3.35;;;1.10;;
34900;SDS011;21112;51.976;5.660;2022-07-29T05:23:38;3.00;;;1.00;;
34900;SDS011;21112;51.976;5.660;2022-07-29T05:26:04;1.92;;;0.82;;
34900;SDS011;21112;51.976;5.660;2022-07-29T05:28:34;4.13;;;1.20;;
34900;SDS011;21112;51.976;5.660;2022-07-29T05:31:01;6.25;;;1.60;;
34900;SDS011;21112;51.976;5.660;2022-07-29T05:33:27;2.83;;;1.17;;
34900;SDS011;21112;51.976;5.660;2022-07-29T05:35:56;2.90;;;0.93;;
34900;SDS011;21112;51.976;5.660;2022-07-29T05:38:23;2.17;;;0.90;;
34900;SDS011;21112;51.976;5.660;2022-07-29T05:40:50;3.08;;;1.30;;
34900;SDS011;21112;51.976;5.660;2022-07-29T05:43:16;2.70;;;1.13;;
34900;SDS011;21112;51.976;5.660;2022-07-29T05:45:46;7.75;;;1.45;;
34900;SDS011;21112;51.976;5.660;2022-07-29T05:48:13;5.20;;;0.93;;
34900;SDS011;21112;51.976;5.660;2022-07-29T05:50:39;3.03;;;0.88;;
34900;SDS011;21112;51.976;5.660;2022-07-29T05:53:06;3.72;;;1.17;;
34900;SDS011;21112;51.976;5.660;2022-07-29T05:55:33;1.75;;;0.95;;
34900;SDS011;21112;51.976;5.660;2022-07-29T05:58:00;2.70;;;1.25;;
34900;SDS011;21112;51.976;5.660;2022-07-29T06:00:27;6.13;;;1.40;;
34900;SDS011;21112;51.976;5.660;2022-07-29T06:02:58;3.53;;;1.10;;
34900;SDS011;21112;51.976;5.660;2022-07-29T06:05:25;1.83;;;0.98;;
34900;SDS011;21112;51.976;5.660;2022-07-29T06:07:51;2.90;;;1.08;;
34900;SDS011;21112;51.976;5.660;2022-07-29T06:10:18;2.42;;;1.25;;
34900;SDS011;21112;51.976;5.660;2022-07-29T06:12:45;3.10;;;1.00;;
34900;SDS011;21112;51.976;5.660;2022-07-29T06:15:13;2.20;;;1.10;;
34900;SDS011;21112;51.976;5.660;2022-07-29T06:17:40;2.13;;;1.00;;
34900;SDS011;21112;51.976;5.660;2022-07-29T06:20:09;1.23;;;0.77;;
34900;SDS011;21112;51.976;5.660;2022-07-29T06:22:37;1.38;;;0.82;;
34900;SDS011;21112;51.976;5.660;2022-07-29T06:25:08;1.17;;;0.80;;
34900;SDS011;21112;51.976;5.660;2022-07-29T06:27:35;1.33;;;1.05;;
34900;SDS011;21112;51.976;5.660;2022-07-29T06:30:02;1.50;;;0.85;;
34900;SDS011;21112;51.976;5.660;2022-07-29T06:32:31;3.22;;;1.20;;
34900;SDS011;21112;51.976;5.660;2022-07-29T06:34:58;2.40;;;0.95;;
34900;SDS011;21112;51.976;5.660;2022-07-29T06:37:32;1.50;;;0.98;;
34900;SDS011;21112;51.976;5.660;2022-07-29T06:40:00;2.58;;;1.20;;
34900;SDS011;21112;51.976;5.660;2022-07-29T06:42:44;2.05;;;0.95;;
34900;SDS011;21112;51.976;5.660;2022-07-29T06:45:11;2.15;;;0.90;;
34900;SDS011;21112;51.976;5.660;2022-07-29T06:47:37;1.45;;;0.90;;
34900;SDS011;21112;51.976;5.660;2022-07-29T06:50:05;2.55;;;1.45;;
34900;SDS011;21112;51.976;5.660;2022-07-29T06:52:33;1.55;;;0.82;;
34900;SDS011;21112;51.976;5.660;2022-07-29T06:55:02;5.18;;;1.05;;
34900;SDS011;21112;51.976;5.660;2022-07-29T06:57:29;3.30;;;1.20;;
34900;SDS011;21112;51.976;5.660;2022-07-29T06:59:55;2.55;;;1.10;;
34900;SDS011;21112;51.976;5.660;2022-07-29T07:02:22;6.07;;;1.73;;
34900;SDS011;21112;51.976;5.660;2022-07-29T07:04:49;2.05;;;1.20;;
34900;SDS011;21112;51.976;5.660;2022-07-29T07:07:16;2.67;;;1.20;;
34900;SDS011;21112;51.976;5.660;2022-07-29T07:09:44;3.13;;;1.15;;
34900;SDS011;21112;51.976;5.660;2022-07-29T07:12:11;3.13;;;1.55;;
34900;SDS011;21112;51.976;5.660;2022-07-29T07:14:37;2.60;;;1.30;;
34900;SDS011;21112;51.976;5.660;2022-07-29T07:17:06;1.95;;;1.00;;
34900;SDS011;21112;51.976;5.660;2022-07-29T07:19:35;1.08;;;0.77;;
34900;SDS011;21112;51.976;5.660;2022-07-29T07:22:08;2.95;;;1.08;;
34900;SDS011;21112;51.976;5.660;2022-07-29T07:24:35;1.65;;;0.88;;
34900;SDS011;21112;51.976;5.660;2022-07-29T07:27:05;1.88;;;0.90;;
34900;SDS011;21112;51.976;5.660;2022-07-29T07:29:33;1.77;;;0.88;;
34900;SDS011;21112;51.976;5.660;2022-07-29T07:32:00;3.15;;;1.00;;
34900;SDS011;21112;51.976;5.660;2022-07-29T07:37:02;3.03;;;0.98;;
34900;SDS011;21112;51.976;5.660;2022-07-29T07:39:28;1.60;;;0.90;;
34900;SDS011;21112;51.976;5.660;2022-07-29T07:41:55;5.05;;;1.08;;
34900;SDS011;21112;51.976;5.660;2022-07-29T07:44:23;2.90;;;1.10;;
34900;SDS011;21112;51.976;5.660;2022-07-29T07:49:22;2.25;;;0.80;;
34900;SDS011;21112;51.976;5.660;2022-07-29T07:51:50;2.77;;;0.90;;
34900;SDS011;21112;51.976;5.660;2022-07-29T07:54:17;1.95;;;0.90;;
34900;SDS011;21112;51.976;5.660;2022-07-29T07:56:46;3.72;;;1.17;;
34900;SDS011;21112;51.976;5.660;2022-07-29T07:59:14;1.90;;;1.10;;
34900;SDS011;21112;51.976;5.660;2022-07-29T08:01:42;5.15;;;1.45;;
34900;SDS011;21112;51.976;5.660;2022-07-29T08:04:08;3.17;;;1.25;;
34900;SDS011;21112;51.976;5.660;2022-07-29T08:06:37;4.15;;;1.40;;
34900;SDS011;21112;51.976;5.660;2022-07-29T08:09:04;3.28;;;1.30;;
34900;SDS011;21112;51.976;5.660;2022-07-29T08:11:30;2.25;;;1.30;;
34900;SDS011;21112;51.976;5.660;2022-07-29T08:13:57;3.28;;;1.27;;
34900;SDS011;21112;51.976;5.660;2022-07-29T08:19:06;4.47;;;1.45;;
34900;SDS011;21112;51.976;5.660;2022-07-29T08:21:32;1.80;;;1.00;;
34900;SDS011;21112;51.976;5.660;2022-07-29T08:23:59;2.60;;;1.30;;
34900;SDS011;21112;51.976;5.660;2022-07-29T08:26:47;2.42;;;1.08;;
34900;SDS011;21112;51.976;5.660;2022-07-29T08:29:14;3.40;;;1.20;;
34900;SDS011;21112;51.976;5.660;2022-07-29T08:31:42;4.32;;;1.60;;
34900;SDS011;21112;51.976;5.660;2022-07-29T08:34:10;2.80;;;1.00;;
34900;SDS011;21112;51.976;5.660;2022-07-29T08:39:08;2.47;;;1.20;;
34900;SDS011;21112;51.976;5.660;2022-07-29T08:41:37;4.53;;;1.25;;
34900;SDS011;21112;51.976;5.660;2022-07-29T08:44:04;5.38;;;1.73;;
34900;SDS011;21112;51.976;5.660;2022-07-29T08:46:31;2.20;;;1.20;;
34900;SDS011;21112;51.976;5.660;2022-07-29T08:48:58;2.67;;;1.20;;
34900;SDS011;21112;51.976;5.660;2022-07-29T08:51:26;4.00;;;1.35;;
34900;SDS011;21112;51.976;5.660;2022-07-29T08:53:53;3.22;;;1.20;;
34900;SDS011;21112;51.976;5.660;2022-07-29T08:56:25;2.83;;;1.55;;
34900;SDS011;21112;51.976;5.660;2022-07-29T08:58:52;2.88;;;1.55;;
34900;SDS011;21112;51.976;5.660;2022-07-29T09:01:21;4.60;;;1.60;;
34900;SDS011;21112;51.976;5.660;2022-07-29T09:03:48;6.10;;;1.73;;
34900;SDS011;21112;51.976;5.660;2022-07-29T09:06:19;4.05;;;1.83;;
34900;SDS011;21112;51.976;5.660;2022-07-29T09:08:49;7.05;;;2.20;;
34900;SDS011;21112;51.976;5.660;2022-07-29T09:11:16;2.65;;;1.45;;
34900;SDS011;21112;51.976;5.660;2022-07-29T09:13:45;5.13;;;1.50;;
34900;SDS011;21112;51.976;5.660;2022-07-29T09:16:14;2.57;;;1.30;;
34900;SDS011;21112;51.976;5.660;2022-07-29T09:18:42;5.95;;;1.70;;
34900;SDS011;21112;51.976;5.660;2022-07-29T09:21:10;8.75;;;1.83;;
34900;SDS011;21112;51.976;5.660;2022-07-29T09:26:50;3.65;;;1.42;;
34900;SDS011;21112;51.976;5.660;2022-07-29T09:29:17;5.25;;;1.77;;
34900;SDS011;21112;51.976;5.660;2022-07-29T09:31:45;7.80;;;2.50;;
34900;SDS011;21112;51.976;5.660;2022-07-29T09:34:12;5.63;;;2.03;;
34900;SDS011;21112;51.976;5.660;2022-07-29T09:36:40;2.90;;;1.40;;
34900;SDS011;21112;51.976;5.660;2022-07-29T09:39:07;6.73;;;2.43;;
34900;SDS011;21112;51.976;5.660;2022-07-29T09:41:44;5.93;;;2.08;;
34900;SDS011;21112;51.976;5.660;2022-07-29T09:44:12;5.28;;;1.20;;
34900;SDS011;21112;51.976;5.660;2022-07-29T09:46:41;4.90;;;2.00;;
34900;SDS011;21112;51.976;5.660;2022-07-29T09:49:19;6.95;;;2.88;;
34900;SDS011;21112;51.976;5.660;2022-07-29T09:51:46;4.05;;;2.13;;
34900;SDS011;21112;51.976;5.660;2022-07-29T09:54:22;4.35;;;1.40;;
34900;SDS011;21112;51.976;5.660;2022-07-29T09:56:49;2.20;;;1.13;;
34900;SDS011;21112;51.976;5.660;2022-07-29T09:59:18;6.35;;;1.30;;
34900;SDS011;21112;51.976;5.660;2022-07-29T10:01:49;7.50;;;2.30;;
34900;SDS011;21112;51.976;5.660;2022-07-29T10:04:16;6.50;;;1.85;;
34900;SDS011;21112;51.976;5.660;2022-07-29T10:09:27;3.13;;;1.38;;
34900;SDS011;21112;51.976;5.660;2022-07-29T10:12:07;4.15;;;1.58;;
34900;SDS011;21112;51.976;5.660;2022-07-29T10:14:37;4.90;;;1.60;;
34900;SDS011;21112;51.976;5.660;2022-07-29T10:17:06;3.35;;;1.27;;
34900;SDS011;21112;51.976;5.660;2022-07-29T10:19:33;4.03;;;1.33;;
34900;SDS011;21112;51.976;5.660;2022-07-29T10:22:01;4.57;;;1.30;;
34900;SDS011;21112;51.976;5.660;2022-07-29T10:24:28;6.03;;;1.20;;
34900;SDS011;21112;51.976;5.660;2022-07-29T10:26:57;2.80;;;1.10;;
34900;SDS011;21112;51.976;5.660;2022-07-29T10:29:25;3.00;;;1.02;;
34900;SDS011;21112;51.976;5.660;2022-07-29T10:32:00;5.30;;;1.30;;
34900;SDS011;21112;51.976;5.660;2022-07-29T10:34:34;4.43;;;1.00;;
34900;SDS011;21112;51.976;5.660;2022-07-29T10:37:16;4.38;;;1.42;;
34900;SDS011;21112;51.976;5.660;2022-07-29T10:39:47;3.30;;;1.15;;
34900;SDS011;21112;51.976;5.660;2022-07-29T10:42:18;1.65;;;0.90;;
34900;SDS011;21112;51.976;5.660;2022-07-29T10:44:46;1.52;;;1.05;;
34900;SDS011;21112;51.976;5.660;2022-07-29T10:47:30;4.05;;;1.00;;
34900;SDS011;21112;51.976;5.660;2022-07-29T10:49:59;3.28;;;1.23;;
34900;SDS011;21112;51.976;5.660;2022-07-29T10:55:07;5.18;;;1.63;;
34900;SDS011;21112;51.976;5.660;2022-07-29T10:57:34;4.55;;;1.10;;
34900;SDS011;21112;51.976;5.660;2022-07-29T11:02:49;6.28;;;1.40;;
34900;SDS011;21112;51.976;5.660;2022-07-29T11:05:20;6.93;;;1.30;;
34900;SDS011;21112;51.976;5.660;2022-07-29T11:10:34;3.13;;;1.50;;
34900;SDS011;21112;51.976;5.660;2022-07-29T11:13:00;4.72;;;1.33;;
34900;SDS011;21112;51.976;5.660;2022-07-29T11:15:27;3.70;;;1.10;;
34900;SDS011;21112;51.976;5.660;2022-07-29T11:18:09;3.60;;;1.00;;
34900;SDS011;21112;51.976;5.660;2022-07-29T11:20:38;2.33;;;1.42;;
34900;SDS011;21112;51.976;5.660;2022-07-29T11:25:34;3.42;;;1.27;;
34900;SDS011;21112;51.976;5.660;2022-07-29T11:28:08;3.83;;;1.10;;
34900;SDS011;21112;51.976;5.660;2022-07-29T11:30:47;4.57;;;1.50;;
34900;SDS011;21112;51.976;5.660;2022-07-29T11:33:27;2.03;;;0.88;;
34900;SDS011;21112;51.976;5.660;2022-07-29T11:36:09;6.15;;;1.20;;
34900;SDS011;21112;51.976;5.660;2022-07-29T11:38:36;1.92;;;0.80;;
34900;SDS011;21112;51.976;5.660;2022-07-29T11:41:21;7.03;;;1.60;;
34900;SDS011;21112;51.976;5.660;2022-07-29T11:43:50;2.50;;;1.08;;
34900;SDS011;21112;51.976;5.660;2022-07-29T11:46:18;2.10;;;1.00;;
34900;SDS011;21112;51.976;5.660;2022-07-29T11:49:06;1.70;;;1.00;;
34900;SDS011;21112;51.976;5.660;2022-07-29T11:51:33;4.00;;;1.10;;
34900;SDS011;21112;51.976;5.660;2022-07-29T11:53:59;2.38;;;1.00;;
34900;SDS011;21112;51.976;5.660;2022-07-29T11:56:29;3.47;;;1.17;;
34900;SDS011;21112;51.976;5.660;2022-07-29T11:59:02;2.97;;;1.35;;
34900;SDS011;21112;51.976;5.660;2022-07-29T12:01:29;3.42;;;1.02;;
34900;SDS011;21112;51.976;5.660;2022-07-29T12:04:02;7.55;;;1.48;;
34900;SDS011;21112;51.976;5.660;2022-07-29T15:01:28;5.90;;;2.20;;
34900;SDS011;21112;51.976;5.660;2022-07-29T15:06:24;3.97;;;2.10;;
34900;SDS011;21112;51.976;5.660;2022-07-29T15:08:52;8.80;;;2.83;;
34900;SDS011;21112;51.976;5.660;2022-07-29T15:11:19;7.47;;;2.50;;
34900;SDS011;21112;51.976;5.660;2022-07-29T15:13:45;3.80;;;1.85;;
34900;SDS011;21112;51.976;5.660;2022-07-29T15:16:12;4.95;;;1.60;;
34900;SDS011;21112;51.976;5.660;2022-07-29T15:18:40;3.70;;;1.90;;
34900;SDS011;21112;51.976;5.660;2022-07-29T15:21:06;4.57;;;2.00;;
34900;SDS011;21112;51.976;5.660;2022-07-29T15:23:33;3.70;;;1.90;;
34900;SDS011;21112;51.976;5.660;2022-07-29T15:26:01;3.40;;;1.73;;
34900;SDS011;21112;51.976;5.660;2022-07-29T15:28:27;4.45;;;1.60;;
34900;SDS011;21112;51.976;5.660;2022-07-29T15:30:54;6.80;;;1.70;;
34900;SDS011;21112;51.976;5.660;2022-07-29T15:33:21;5.03;;;1.63;;
34900;SDS011;21112;51.976;5.660;2022-07-29T15:35:50;3.60;;;1.60;;
34900;SDS011;21112;51.976;5.660;2022-07-29T15:38:17;7.97;;;1.80;;
34900;SDS011;21112;51.976;5.660;2022-07-29T15:40:43;3.10;;;1.48;;
34900;SDS011;21112;51.976;5.660;2022-07-29T15:43:11;4.45;;;1.92;;
34900;SDS011;21112;51.976;5.660;2022-07-29T15:45:38;3.55;;;1.55;;
34900;SDS011;21112;51.976;5.660;2022-07-29T15:48:05;3.20;;;1.40;;
34900;SDS011;21112;51.976;5.660;2022-07-29T15:50:32;8.80;;;1.60;;
34900;SDS011;21112;51.976;5.660;2022-07-29T15:53:00;6.38;;;1.70;;
34900;SDS011;21112;51.976;5.660;2022-07-29T15:57:53;5.13;;;1.10;;
34900;SDS011;21112;51.976;5.660;2022-07-29T16:00:20;3.72;;;1.42;;
34900;SDS011;21112;51.976;5.660;2022-07-29T16:02:46;6.03;;;1.80;;
34900;SDS011;21112;51.976;5.660;2022-07-29T16:05:13;5.97;;;1.50;;
34900;SDS011;21112;51.976;5.660;2022-07-29T16:07:39;5.40;;;1.50;;
34900;SDS011;21112;51.976;5.660;2022-07-29T16:10:07;3.33;;;1.30;;
34900;SDS011;21112;51.976;5.660;2022-07-29T16:12:34;4.20;;;1.45;;
34900;SDS011;21112;51.976;5.660;2022-07-29T16:15:01;5.88;;;1.63;;
34900;SDS011;21112;51.976;5.660;2022-07-29T16:17:27;4.60;;;1.60;;
34900;SDS011;21112;51.976;5.660;2022-07-29T16:19:54;12.20;;;1.80;;
34900;SDS011;21112;51.976;5.660;2022-07-29T16:22:21;2.72;;;1.20;;
34900;SDS011;21112;51.976;5.660;2022-07-29T16:24:48;3.67;;;1.40;;
34900;SDS011;21112;51.976;5.660;2022-07-29T16:27:17;4.63;;;1.17;;
34900;SDS011;21112;51.976;5.660;2022-07-29T16:29:48;4.00;;;1.58;;
34900;SDS011;21112;51.976;5.660;2022-07-29T16:32:15;3.45;;;1.73;;
34900;SDS011;21112;51.976;5.660;2022-07-29T16:34:42;6.35;;;1.60;;
34900;SDS011;21112;51.976;5.660;2022-07-29T16:37:09;3.60;;;1.60;;
34900;SDS011;21112;51.976;5.660;2022-07-29T16:39:36;8.02;;;1.70;;
34900;SDS011;21112;51.976;5.660;2022-07-29T16:42:03;7.28;;;1.75;;
34900;SDS011;21112;51.976;5.660;2022-07-29T16:44:31;4.65;;;1.88;;
34900;SDS011;21112;51.976;5.660;2022-07-29T16:46:59;12.02;;;2.30;;
34900;SDS011;21112;51.976;5.660;2022-07-29T16:49:25;4.40;;;1.45;;
34900;SDS011;21112;51.976;5.660;2022-07-29T16:51:52;9.18;;;1.80;;
34900;SDS011;21112;51.976;5.660;2022-07-29T16:54:18;1.70;;;1.10;;
34900;SDS011;21112;51.976;5.660;2022-07-29T16:56:48;7.07;;;1.63;;
34900;SDS011;21112;51.976;5.660;2022-07-29T16:59:14;3.00;;;1.52;;
34900;SDS011;21112;51.976;5.660;2022-07-29T17:01:42;4.60;;;1.70;;
34900;SDS011;21112;51.976;5.660;2022-07-29T17:04:09;4.32;;;1.58;;
34900;SDS011;21112;51.976;5.660;2022-07-29T17:06:39;5.82;;;1.63;;
34900;SDS011;21112;51.976;5.660;2022-07-29T17:09:07;7.18;;;1.42;;
34900;SDS011;21112;51.976;5.660;2022-07-29T17:11:34;2.67;;;1.20;;
34900;SDS011;21112;51.976;5.660;2022-07-29T17:14:00;4.30;;;1.52;;
34900;SDS011;21112;51.976;5.660;2022-07-29T17:16:27;3.55;;;1.17;;
34900;SDS011;21112;51.976;5.660;2022-07-29T17:18:55;4.37;;;1.47;;
34900;SDS011;21112;51.976;5.660;2022-07-29T17:21:22;2.92;;;1.35;;
34900;SDS011;21112;51.976;5.660;2022-07-29T17:23:50;3.53;;;1.50;;
34900;SDS011;21112;51.976;5.660;2022-07-29T17:26:19;4.53;;;1.33;;
34900;SDS011;21112;51.976;5.660;2022-07-29T17:28:46;2.72;;;1.17;;
34900;SDS011;21112;51.976;5.660;2022-07-29T17:31:13;6.78;;;1.35;;
34900;SDS011;21112;51.976;5.660;2022-07-29T17:33:42;1.70;;;1.05;;
34900;SDS011;21112;51.976;5.660;2022-07-29T17:36:10;4.05;;;1.10;;
34900;SDS011;21112;51.976;5.660;2022-07-29T17:38:49;3.10;;;1.20;;
34900;SDS011;21112;51.976;5.660;2022-07-29T17:41:16;3.53;;;1.20;;
34900;SDS011;21112;51.976;5.660;2022-07-29T17:43:43;3.47;;;1.20;;
34900;SDS011;21112;51.976;5.660;2022-07-29T17:46:11;4.53;;;1.48;;
34900;SDS011;21112;51.976;5.660;2022-07-29T17:48:41;3.25;;;1.27;;
34900;SDS011;21112;51.976;5.660;2022-07-29T17:51:08;3.10;;;1.20;;
34900;SDS011;21112;51.976;5.660;2022-07-29T17:53:37;3.40;;;1.20;;
34900;SDS011;21112;51.976;5.660;2022-07-29T17:56:08;2.95;;;1.33;;
34900;SDS011;21112;51.976;5.660;2022-07-29T17:58:34;3.17;;;1.20;;
34900;SDS011;21112;51.976;5.660;2022-07-29T18:01:01;3.25;;;1.33;;
34900;SDS011;21112;51.976;5.660;2022-07-29T18:03:28;3.50;;;1.20;;
34900;SDS011;21112;51.976;5.660;2022-07-29T18:05:56;1.92;;;1.05;;
34900;SDS011;21112;51.976;5.660;2022-07-29T18:08:22;3.83;;;1.20;;
34900;SDS011;21112;51.976;5.660;2022-07-29T18:10:52;4.60;;;1.23;;
34900;SDS011;21112;51.976;5.660;2022-07-29T18:13:19;4.82;;;1.20;;
34900;SDS011;21112;51.976;5.660;2022-07-29T18:15:45;1.80;;;0.98;;
34900;SDS011;21112;51.976;5.660;2022-07-29T18:18:12;5.20;;;1.10;;
34900;SDS011;21112;51.976;5.660;2022-07-29T18:20:40;3.25;;;1.08;;
34900;SDS011;21112;51.976;5.660;2022-07-29T18:23:07;3.88;;;1.10;;
34900;SDS011;21112;51.976;5.660;2022-07-29T18:25:43;3.40;;;1.00;;
34900;SDS011;21112;51.976;5.660;2022-07-29T18:28:11;4.30;;;1.10;;
34900;SDS011;21112;51.976;5.660;2022-07-29T18:33:04;1.95;;;1.00;;